Relevés horaires Beauvechain (Belgique)


Relevés horaires à Beauvechain - Samedi 28 Juill. 2018
Heure UTC1 Température [°C] Vent [km/h] Hum. [%] Pres.4 [hPa] Visi. [Km] Nébu. [octa] Préc.5 [mm] Cond.
2m. Res. Ros. Dir.2 Vit. Moy. Raf.3
23:00 17.4 17.4 8.2 NNO 1.9 -- 3.7 55 1014.2(0.8/3h) 20 -- -- --
22:00 18.2 18.2 8.3 NNO 1.9 -- 1.9 52 1014.2(1.6/3h) 20 -- -- --
21:00 18.9 18.9 8.1 NNO 1.9 -- 14.8 49 1013.8(1.9/3h) 20 -- -- --
20:00 19.7 19.7 8.5 NNO 1.9 -- 5.6 48 1013.2(1.9/3h) 20 -- -- --
19:00 21.2 21.2 8.4 ONO 3.7 -- 14.8 44 1012.3(1.6/3h) 20 -- -- --
18:00 22.8 22.8 9.1 O 9.3 -- 24.1 42 1011.7(1.2/3h) 20 -- 0.5/12h
--
17:00 23.6 23.6 9.7 O 9.3 -- 22.2 41 1011.1(0.6/3h) 20 -- -- --
16:00 24.7 24.7 10.5 OSO 13.0 -- 24.1 41 1010.5(0.7/3h) 20 -- -- --
15:00 24.3 24.3 12.2 OSO 13.0 -- 24.1 47 1010.2(1.2/3h) 19 -- -- --
14:00 23.8 23.8 13.7 OSO 13.0 -- 24.1 53 1010.3(1.6/3h) 20 -- -- --
13:00 25.0 25.0 14.4 OSO 11.1 -- 22.2 52 1009.7(1.1/3h) 20 -- -- --
12:00 25.5 25.5 14.1 OSO 13.0 -- 24.1 49 1009(0.5/3h) 20 -- 0.5/6h
NA
11:00 24.8 24.8 16.3 SO 14.8 -- 22.2 59 1008.6(0.5/3h) 20 -- -- --
10:00 23.9 23.9 16.4 SO 11.1 -- 16.7 63 1008.7(0.8/3h) 20 -- -- --
09:00 21.7 21.7 17.2 SO 11.1 -- 16.7 76 1008.6(1.0/3h) 20 -- -- NA
08:00 21.5 21.5 18.2 SSO 5.6 -- 9.3 82 1008.2(0.4/3h) 19 -- -- NA
07:00 20.1 20.1 18.3 S 5.6 -- 7.4 89 1008.1(0.0/3h) 10 -- -- Il y a de la pluie faible et continue à la station au moment de l'observation
06:00 19.8 19.8 18.0 NNO 1.9 -- 22.2 89 1007.7(1.8/3h) 14 -- 0.1/12h
NA
05:00 19.3 19.3 17.7 NNO 1.9 -- 13.0 90 1007.8(-0.4/3h) 12 -- -- NA
04:00 19.3 19.3 17.3 OSO 9.3 -- 13.0 88 1008.1(-1.1/3h) 19 -- -- NA
03:00 20.2 20.2 16.3 NE 7.4 -- 22.2 78 1005.7(-1.7/3h) 20 -- -- --
02:00 20.5 20.5 16.4 NNO 1.9 -- 20.4 77 1008.2(0.0/3h) 20 -- -- --
01:00 21.8 21.8 16.2 OSO 14.8 -- 22.2 71 1009.2(0.9/3h) 20 -- -- --
00:00 21.2 21.2 15.4 NNO 1.9 -- 20.4 69 1007.5(0.0/3h) 20 -- -- --

1 Coordinated Universal Time. Actuellement il est 17:00 locale et 16:00 UTC.

2 Le vent souffle depuis la direction indiquée vers la direction oposée.

3 Les rafales max. sont disponible 40 min après l'heure du relevé.

4 Pour les stations d'altitude (plus de 600m) le géopotentiel du niveau le plus proche de la pression obligatoire est indiqué.

5 Les stations disposant d'un diffuseur peuvent indiquer "trace". Cela signifie que des précipitations ont touchés le sol mais que la quantité est inférieure à 0.1 mm.

Récapitulatif de la journée
Température [°C] Vent [km/h] Ensoleillement4 [h] Precipitations totale5 [mm] Pression [Hpa]
Min1 Max.2 Moy.3 Max. Min Max.
19.1 26.2 0 24.1 0 h 0 min 0 1005.7 1014.2

1 Température minimale relevée entre 18:00 UTC la veille et 18:00 UTC le jour donné.

2 Température maximale relevée entre 06:00 UTC le jour donné et 06:00 UTC le lendemain.

3 Vent moyen de la journée basé sur les relevés horaires.

4 Ensoleillement en heures relevé entre 06:00 UTC la veille et 06:00 UTC le jour donné.

5 Précipitations totales tombées entre 06:00 UTC la jour donné et 06:00 UTC le lendemain.

Graphiques horaires